Onde está Vila Franca de Xira en Portugal?

 

Vila Franca de Xira está situado na região Lisboa em Portugal!

Buscar o nome de uma cidade:

Vilar de Ordem, Vilá, Vila Cova, Vila do Mato, Vila Fontes

Aqui você vai encontrar a localização de Vila Franca de Xira em um mapa.
Para ver como ele atualmente parece, abaixo estão algumas fotos da região, com webcams online.
Você também pode encontrar a distância para as principais cidades da região e de cidades do resto do Portugal.

Cidades do mundo
Cidades em Portugal que também são encontradas em outros países do mundo.


Onde está Vila Franca de Xira no mapa?




Webcams perto Vila Franca de Xira

Benavente › North-East: Santarém - AIrport, METAR: BENAV 180005Z 36004KT 17/14 Q1015.


Benavente › North-East: Santarém - AIrport, METAR: BENAV 180005Z 36004KT 17/14 Q1015 - Dia
Actual
Benavente › North-East: Santarém - AIrport, METAR: BENAV 180005Z 36004KT 17/14 Q1015 - Actual

Benavente › South: Garrocheira - Airport.


Benavente › South: Garrocheira - Airport - Dia
Actual
Benavente › South: Garrocheira - Airport - Actual

Parque das Nacoes › South: Rua Vasco da Gama.


Parque das Nacoes › South: Rua Vasco da Gama - Dia
Actual
Parque das Nacoes › South: Rua Vasco da Gama - Actual

Webcams provided by webcams.travel


Distâncias

Onde está Vila Franca de Xira em relação a outros lugares?

Top 10 cidades em Lisboa e distância de Vila Franca de Xira.

Cidade#Populaçãokmmilhas
Lisbon15177982918
Amadora21788563119
Queluz31033983220
Loures4662302113
Rio de Mouro5546953522
Odivelas6546232415
São Domingos de Rana7467174025
Cascais8364364729
Alcabideche9333154327
Póvoa de Santa Iria1028900138

Top 10 cidades em Portugal e distância de Vila Franca de Xira.

Cidade # Populaçãokmmilhas
Lisbon15177982918
Porto2249630246153
Amadora31788563119
Braga4121393293182
Setúbal51171094830
Coimbra610658014892
Queluz71033983220
Funchal8980411001622
Vila Nova de Gaia970810245152
Loures10662302113



Info

Estatística e Geografia

Portugal é composta de 15299 cidades em 20 regiões.

A região de Lisboa tem 1032 cidades.

Vila Franca de Xira é o número 24 na região Lisboa.

A cidade é o número 84 na Portugal.

A população é de 18359.

Onde está Vila Franca de Xira en Portugal?